createdAt,value
2022-12-29T00:00:19.060Z,95926.41
2022-12-29T00:02:46.052Z,95915.28
2022-12-29T00:05:12.912Z,95925.63
2022-12-29T00:07:39.596Z,95925.78
2022-12-29T00:10:06.889Z,95924.19
2022-12-29T00:12:53.462Z,95915.38
2022-12-29T00:15:38.548Z,95911.91
2022-12-29T00:18:05.607Z,95930.06
2022-12-29T00:20:54.008Z,95928.22
2022-12-29T00:23:39.483Z,95936.25
2022-12-29T00:26:39.896Z,95936.97
2022-12-29T00:29:27.856Z,95932.19
2022-12-29T00:32:13.020Z,95945.97
2022-12-29T00:34:58.473Z,95941.28
2022-12-29T00:37:45.203Z,95945.50
2022-12-29T00:40:34.980Z,95953.31
2022-12-29T00:43:20.628Z,95956.00
2022-12-29T00:45:47.649Z,95949.84
2022-12-29T00:48:14.319Z,95956.00
2022-12-29T00:50:41.349Z,95953.00
2022-12-29T00:53:07.895Z,95944.13
2022-12-29T00:55:38.490Z,95926.94
2022-12-29T00:58:05.066Z,95953.84
2022-12-29T01:00:31.714Z,95961.25
2022-12-29T01:02:58.434Z,95936.97
2022-12-29T01:05:25.144Z,95951.16
2022-12-29T01:07:51.843Z,95947.66
2022-12-29T01:10:18.407Z,95950.00
2022-12-29T01:12:46.291Z,95945.03
2022-12-29T01:15:15.760Z,95943.09
2022-12-29T01:17:43.308Z,95951.91
2022-12-29T01:20:11.823Z,95941.88
2022-12-29T01:22:39.010Z,95937.25
2022-12-29T01:25:06.944Z,95916.03
2022-12-29T01:27:33.831Z,95927.16
2022-12-29T01:30:00.727Z,95935.94
2022-12-29T01:32:27.357Z,95930.94
2022-12-29T01:34:54.084Z,95924.06
2022-12-29T01:37:20.705Z,95899.94
2022-12-29T01:39:47.383Z,95915.22
2022-12-29T01:42:19.774Z,95903.75
2022-12-29T01:44:56.775Z,95910.63
2022-12-29T01:47:30.477Z,95911.81
2022-12-29T01:50:00.150Z,95913.38
2022-12-29T01:52:30.059Z,95909.56
2022-12-29T01:54:59.157Z,95917.00
2022-12-29T01:57:33.610Z,95896.59
2022-12-29T02:00:10.634Z,95902.78
2022-12-29T02:02:38.657Z,95886.69
2022-12-29T02:05:35.014Z,95905.56
2022-12-29T02:08:02.665Z,95907.97
2022-12-29T02:10:32.628Z,95896.50
2022-12-29T02:12:59.387Z,95912.25
2022-12-29T02:15:53.000Z,95901.84
2022-12-29T02:18:58.167Z,95889.50
2022-12-29T02:21:25.056Z,95902.63
2022-12-29T02:24:48.819Z,95890.34
2022-12-29T02:27:33.372Z,95898.06
2022-12-29T02:30:13.497Z,95889.97
2022-12-29T02:33:25.004Z,95889.97
2022-12-29T02:36:36.081Z,95904.97
2022-12-29T02:39:02.715Z,95898.72
2022-12-29T02:41:33.700Z,95910.19
2022-12-29T02:44:38.813Z,95902.53
2022-12-29T02:47:41.310Z,95900.94
2022-12-29T02:50:07.976Z,95902.78
2022-12-29T02:52:45.752Z,95883.88
2022-12-29T02:55:12.833Z,95891.94
2022-12-29T02:57:39.594Z,95882.34
2022-12-29T03:00:16.129Z,95887.28
2022-12-29T03:03:00.736Z,95889.97
2022-12-29T03:05:46.304Z,95886.94
2022-12-29T03:09:02.576Z,95890.56
2022-12-29T03:11:59.247Z,95866.41
2022-12-29T03:14:50.340Z,95872.56
2022-12-29T03:17:28.543Z,95874.88
2022-12-29T03:20:02.375Z,95867.69
2022-12-29T03:22:33.741Z,95866.47
2022-12-29T03:25:29.658Z,95872.97
2022-12-29T03:28:08.874Z,95856.00
2022-12-29T03:30:37.705Z,95875.97
2022-12-29T03:33:08.684Z,95882.13
2022-12-29T03:35:38.267Z,95874.38
2022-12-29T03:38:13.565Z,95873.28
2022-12-29T03:40:45.055Z,95883.78
2022-12-29T03:43:13.818Z,95871.81
2022-12-29T03:45:41.243Z,95879.56
2022-12-29T03:48:08.032Z,95885.69
2022-12-29T03:50:34.861Z,95861.47
2022-12-29T03:53:01.518Z,95881.88
2022-12-29T03:55:28.411Z,95892.66
2022-12-29T03:57:55.113Z,95899.22
2022-12-29T04:00:21.869Z,95898.53
2022-12-29T04:02:48.674Z,95906.63
2022-12-29T04:05:15.578Z,95898.53
2022-12-29T04:07:42.178Z,95890.47
2022-12-29T04:10:09.273Z,95897.38
2022-12-29T04:12:36.150Z,95878.22
2022-12-29T04:15:02.831Z,95880.50
2022-12-29T04:17:29.626Z,95874.75
2022-12-29T04:20:16.215Z,95905.88
2022-12-29T04:22:43.488Z,95882.78
2022-12-29T04:25:10.309Z,95882.81
2022-12-29T04:27:36.982Z,95894.72
2022-12-29T04:30:04.084Z,95900.88
2022-12-29T04:32:30.816Z,95889.72
2022-12-29T04:34:57.389Z,95892.44
2022-12-29T04:37:24.147Z,95910.88
2022-12-29T04:39:50.843Z,95909.00
2022-12-29T04:42:17.494Z,95918.63
2022-12-29T04:44:45.419Z,95903.63
2022-12-29T04:47:12.215Z,95914.72
2022-12-29T04:49:39.031Z,95899.78
2022-12-29T04:52:05.804Z,95931.28
2022-12-29T04:54:32.539Z,95913.97
2022-12-29T04:56:59.248Z,95931.56
2022-12-29T04:59:25.795Z,95926.22
2022-12-29T05:01:52.781Z,95931.13
2022-12-29T05:04:19.457Z,95925.41
2022-12-29T05:06:46.105Z,95934.66
2022-12-29T05:09:12.743Z,95943.19
2022-12-29T05:11:39.544Z,95942.47
2022-12-29T05:14:06.165Z,95928.25
2022-12-29T05:16:33.046Z,95930.50
2022-12-29T05:19:00.506Z,95929.69
2022-12-29T05:21:27.111Z,95936.59
2022-12-29T05:23:53.762Z,95941.22
2022-12-29T05:26:20.440Z,95938.91
2022-12-29T05:28:47.355Z,95930.06
2022-12-29T05:31:14.203Z,95932.38
2022-12-29T05:33:40.833Z,95933.47
2022-12-29T05:36:09.532Z,95941.13
2022-12-29T05:38:36.510Z,95936.13
2022-12-29T05:41:03.506Z,95929.66
2022-12-29T05:43:30.217Z,95947.00
2022-12-29T05:45:58.608Z,95932.41
2022-12-29T05:48:25.441Z,95937.03
2022-12-29T05:50:52.650Z,95942.41
2022-12-29T05:53:19.456Z,95943.16
2022-12-29T05:55:49.069Z,95943.53
2022-12-29T05:58:17.280Z,95933.56
2022-12-29T06:00:44.134Z,95949.28
2022-12-29T06:03:12.316Z,95955.44
2022-12-29T06:05:39.133Z,95949.63
2022-12-29T06:08:05.821Z,95948.09
2022-12-29T06:10:32.454Z,95963.06
2022-12-29T06:12:59.191Z,95952.59
2022-12-29T06:15:26.390Z,95969.06
2022-12-29T06:17:53.111Z,95957.47
2022-12-29T06:20:19.713Z,95958.13
2022-12-29T06:22:47.512Z,95960.44
2022-12-29T06:25:14.262Z,95954.69
2022-12-29T06:27:40.988Z,95963.50
2022-12-29T06:30:08.122Z,95952.41
2022-12-29T06:32:34.672Z,95971.41
2022-12-29T06:35:01.324Z,95962.16
2022-12-29T06:37:28.191Z,95969.47
2022-12-29T06:39:54.879Z,95963.34
2022-12-29T06:42:21.843Z,95971.41
2022-12-29T06:44:48.778Z,95958.00
2022-12-29T06:47:15.423Z,95969.88
2022-12-29T06:49:42.193Z,95979.44
2022-12-29T06:52:12.759Z,95975.22
2022-12-29T06:54:40.231Z,95969.78
2022-12-29T06:57:06.816Z,95974.41
2022-12-29T06:59:34.081Z,95968.66
2022-12-29T07:02:03.418Z,95985.16
2022-12-29T07:04:30.314Z,95972.19
2022-12-29T07:06:56.981Z,95982.63
2022-12-29T07:09:23.620Z,95989.91
2022-12-29T07:11:50.183Z,95981.03
2022-12-29T07:14:16.812Z,95986.00
2022-12-29T07:16:43.628Z,95977.50
2022-12-29T07:19:10.580Z,95982.19
2022-12-29T07:21:37.207Z,95962.16
2022-12-29T07:24:04.096Z,95980.97
2022-12-29T07:26:36.152Z,95960.22
2022-12-29T07:29:04.593Z,95970.13
2022-12-29T07:31:32.316Z,95976.31
2022-12-29T07:33:59.072Z,95975.00
2022-12-29T07:36:30.770Z,95982.38
2022-12-29T07:39:00.726Z,95968.56
2022-12-29T07:41:27.831Z,95987.66
2022-12-29T07:43:54.612Z,95975.66
2022-12-29T07:46:56.002Z,95983.69
2022-12-29T07:49:08.212Z,95980.22
2022-12-29T07:51:35.208Z,95987.16
2022-12-29T07:54:01.917Z,95994.81
2022-12-29T07:56:28.582Z,95987.03
2022-12-29T07:58:55.319Z,95984.78
2022-12-29T08:01:24.729Z,95988.25
2022-12-29T08:03:56.841Z,95998.63
2022-12-29T08:06:24.196Z,95981.97
2022-12-29T08:08:50.893Z,95991.59
2022-12-29T08:11:17.572Z,95992.31
2022-12-29T08:13:44.211Z,95988.75
2022-12-29T08:16:10.834Z,95983.22
2022-12-29T08:18:37.523Z,95978.47
2022-12-29T08:21:05.457Z,95983.34
2022-12-29T08:23:32.729Z,95989.50
2022-12-29T08:26:05.253Z,95988.16
2022-12-29T08:28:32.422Z,95978.03
2022-12-29T08:31:01.018Z,95981.91
2022-12-29T08:33:28.805Z,95978.69
2022-12-29T08:36:07.382Z,95984.84
2022-12-29T08:38:34.535Z,95991.94
2022-12-29T08:41:04.134Z,95985.53
2022-12-29T08:43:31.469Z,95984.94
2022-12-29T08:46:01.477Z,95983.97
2022-12-29T08:48:28.353Z,95995.31
2022-12-29T08:50:55.831Z,95992.16
2022-12-29T08:53:22.412Z,95976.91
2022-12-29T08:56:02.362Z,95997.31
2022-12-29T08:58:31.511Z,95992.00
2022-12-29T09:00:59.573Z,95982.38
2022-12-29T09:04:03.788Z,95965.56
2022-12-29T09:06:13.435Z,95973.94
2022-12-29T09:08:40.623Z,95966.41
2022-12-29T09:11:13.905Z,95970.34
2022-12-29T09:13:40.725Z,95951.06
2022-12-29T09:16:07.876Z,95959.44
2022-12-29T09:18:35.309Z,95949.75
2022-12-29T09:21:04.491Z,95960.16
2022-12-29T09:23:31.722Z,95951.63
2022-12-29T09:25:58.398Z,95941.47
2022-12-29T09:28:25.775Z,95960.66
2022-12-29T09:30:52.502Z,95956.22
2022-12-29T09:33:19.380Z,95948.03
2022-12-29T09:35:51.328Z,95952.03
2022-12-29T09:38:18.192Z,95948.69
2022-12-29T09:40:50.676Z,95945.78
2022-12-29T09:43:47.540Z,95947.19
2022-12-29T09:46:26.746Z,95946.16
2022-12-29T09:49:14.707Z,95938.44
2022-12-29T09:51:47.287Z,95935.06
2022-12-29T09:54:36.095Z,95930.34
2022-12-29T09:57:02.835Z,95934.50
2022-12-29T09:59:42.321Z,95929.50
2022-12-29T10:02:21.974Z,95921.69
2022-12-29T10:04:48.785Z,95929.44
2022-12-29T10:07:30.652Z,95898.31
2022-12-29T10:10:27.855Z,95916.19
2022-12-29T10:13:32.319Z,95920.75
2022-12-29T10:16:03.874Z,95918.88
2022-12-29T10:18:49.040Z,95918.16
2022-12-29T10:21:51.475Z,95912.81
2022-12-29T10:24:20.155Z,95904.66
2022-12-29T10:26:49.332Z,95892.53
2022-12-29T10:29:34.940Z,95899.09
2022-12-29T10:32:04.160Z,95905.09
2022-12-29T10:34:46.321Z,95900.47
2022-12-29T10:37:18.991Z,95897.59
2022-12-29T10:39:50.481Z,95887.81
2022-12-29T10:42:38.487Z,95884.22
2022-12-29T10:45:06.568Z,95888.31
2022-12-29T10:47:38.909Z,95883.91
2022-12-29T10:50:05.903Z,95886.56
2022-12-29T10:52:34.423Z,95871.22
2022-12-29T10:55:14.229Z,95868.72
2022-12-29T10:57:45.338Z,95872.97
2022-12-29T11:00:21.548Z,95867.34
2022-12-29T11:02:59.595Z,95860.28
2022-12-29T11:05:50.810Z,95858.78
2022-12-29T11:08:25.585Z,95844.19
2022-12-29T11:11:02.131Z,95856.03
2022-12-29T11:13:38.328Z,95851.28
2022-12-29T11:16:05.789Z,95851.72
2022-12-29T11:18:40.894Z,95852.16
2022-12-29T11:21:26.274Z,95849.84
2022-12-29T11:24:02.442Z,95837.94
2022-12-29T11:26:34.369Z,95846.81
2022-12-29T11:29:27.824Z,95847.06
2022-12-29T11:32:00.246Z,95848.34
2022-12-29T11:34:36.195Z,95836.81
2022-12-29T11:37:11.519Z,95828.25
2022-12-29T11:39:58.425Z,95845.31
2022-12-29T11:42:42.178Z,95835.03
2022-12-29T11:45:21.902Z,95836.81
2022-12-29T11:47:51.697Z,95830.00
2022-12-29T11:50:24.119Z,95833.00
2022-12-29T11:52:58.934Z,95825.63
2022-12-29T11:55:27.533Z,95833.59
2022-12-29T11:57:56.838Z,95830.56
2022-12-29T12:00:26.243Z,95826.53
2022-12-29T12:03:27.933Z,95815.13
2022-12-29T12:06:01.706Z,95819.06
2022-12-29T12:08:28.311Z,95810.56
2022-12-29T12:11:43.190Z,95802.81
2022-12-29T12:14:21.524Z,95802.34
2022-12-29T12:16:54.779Z,95792.78
2022-12-29T12:19:40.960Z,95799.75
2022-12-29T12:22:28.998Z,95798.44
2022-12-29T12:25:27.154Z,95794.44
2022-12-29T12:28:16.143Z,95800.25
2022-12-29T12:30:48.959Z,95794.88
2022-12-29T12:33:30.641Z,95791.28
2022-12-29T12:36:31.551Z,95788.72
2022-12-29T12:39:35.275Z,95783.91
2022-12-29T12:43:04.046Z,95781.00
2022-12-29T12:45:53.507Z,95782.19
2022-12-29T12:48:37.986Z,95789.16
2022-12-29T12:51:10.334Z,95789.47
2022-12-29T12:54:01.455Z,95788.13
2022-12-29T12:56:40.148Z,95784.16
2022-12-29T12:59:43.220Z,95782.34
2022-12-29T13:02:19.288Z,95785.31
2022-12-29T13:05:01.379Z,95788.06
2022-12-29T13:07:36.102Z,95778.50
2022-12-29T13:10:40.555Z,95780.81
2022-12-29T13:13:43.831Z,95787.59
2022-12-29T13:16:35.635Z,95786.03
2022-12-29T13:19:35.524Z,95787.91
2022-12-29T13:22:20.113Z,95788.66
2022-12-29T13:24:52.579Z,95791.88
2022-12-29T13:27:22.400Z,95796.31
2022-12-29T13:29:58.146Z,95796.66
2022-12-29T13:33:00.218Z,95792.09
2022-12-29T13:35:41.176Z,95793.03
2022-12-29T13:38:22.220Z,95786.94
2022-12-29T13:40:56.107Z,95795.63
2022-12-29T13:43:24.734Z,95798.78
2022-12-29T13:45:59.237Z,95781.38
2022-12-29T13:48:38.270Z,95784.88
2022-12-29T13:51:06.901Z,95772.66
2022-12-29T13:54:18.237Z,95800.69
2022-12-29T13:57:03.806Z,95788.03
2022-12-29T14:00:03.587Z,95788.78
2022-12-29T14:02:48.188Z,95790.00
2022-12-29T14:05:21.275Z,95793.16
2022-12-29T14:07:50.178Z,95789.56
2022-12-29T14:10:36.764Z,95799.63
2022-12-29T14:13:05.820Z,95779.09
2022-12-29T14:15:32.773Z,95798.28
2022-12-29T14:18:07.211Z,95776.75
2022-12-29T14:20:34.883Z,95804.09
2022-12-29T14:23:10.527Z,95799.63
2022-12-29T14:26:08.474Z,95808.75
2022-12-29T14:28:39.459Z,95808.16
2022-12-29T14:31:06.887Z,95796.06
2022-12-29T14:33:35.631Z,95801.09
2022-12-29T14:36:36.321Z,95794.72
2022-12-29T14:39:04.064Z,95797.59
2022-12-29T14:41:40.381Z,95779.78
2022-12-29T14:44:20.793Z,95804.91
2022-12-29T14:46:58.725Z,95810.66
2022-12-29T14:49:29.632Z,95822.16
2022-12-29T14:52:23.927Z,95814.13
2022-12-29T14:54:58.835Z,95806.53
2022-12-29T14:57:41.500Z,95813.81
2022-12-29T15:00:25.629Z,95824.19
2022-12-29T15:03:20.839Z,95817.88
2022-12-29T15:05:52.514Z,95813.81
2022-12-29T15:08:22.605Z,95790.41
2022-12-29T15:10:56.434Z,95811.19
2022-12-29T15:13:26.630Z,95805.09
2022-12-29T15:15:56.629Z,95801.94
2022-12-29T15:18:31.382Z,95806.94
2022-12-29T15:21:04.293Z,95806.84
2022-12-29T15:23:33.449Z,95801.16
2022-12-29T15:26:08.714Z,95806.50
2022-12-29T15:28:43.461Z,95797.19
2022-12-29T15:31:30.266Z,95806.41
2022-12-29T15:34:12.384Z,95806.84
2022-12-29T15:36:41.342Z,95806.00
2022-12-29T15:39:33.568Z,95795.81
2022-12-29T15:42:44.431Z,95810.31
2022-12-29T15:45:13.454Z,95798.41
2022-12-29T15:47:42.841Z,95804.44
2022-12-29T15:50:30.707Z,95811.09
2022-12-29T15:52:59.304Z,95817.56
2022-12-29T15:55:32.952Z,95810.63
2022-12-29T15:58:01.811Z,95792.44
2022-12-29T16:00:38.541Z,95796.28
2022-12-29T16:03:07.656Z,95801.22
2022-12-29T16:05:42.056Z,95796.47
2022-12-29T16:08:33.576Z,95811.91
2022-12-29T16:11:02.899Z,95808.44
2022-12-29T16:13:39.883Z,95797.72
2022-12-29T16:16:19.013Z,95806.97
2022-12-29T16:18:47.563Z,95798.59
2022-12-29T16:21:36.641Z,95808.72
2022-12-29T16:24:08.083Z,95804.63
2022-12-29T16:26:34.832Z,95797.91
2022-12-29T16:29:06.002Z,95811.50
2022-12-29T16:31:51.498Z,95804.34
2022-12-29T16:34:26.855Z,95812.56
2022-12-29T16:37:26.506Z,95812.94
2022-12-29T16:39:53.190Z,95817.22
2022-12-29T16:42:45.704Z,95813.88
2022-12-29T16:45:24.825Z,95819.06
2022-12-29T16:48:21.208Z,95814.66
2022-12-29T16:50:49.260Z,95803.06
2022-12-29T16:53:27.444Z,95809.44
2022-12-29T16:55:55.737Z,95817.09
2022-12-29T16:58:25.759Z,95816.81
2022-12-29T17:01:01.593Z,95821.47
2022-12-29T17:03:36.285Z,95813.00
2022-12-29T17:06:03.854Z,95817.41
2022-12-29T17:08:39.237Z,95814.59
2022-12-29T17:11:24.423Z,95818.91
2022-12-29T17:13:51.006Z,95826.16
2022-12-29T17:16:17.745Z,95823.47
2022-12-29T17:18:44.441Z,95830.13
2022-12-29T17:21:11.140Z,95833.38
2022-12-29T17:23:37.718Z,95825.88
2022-12-29T17:26:04.568Z,95816.22
2022-12-29T17:28:32.829Z,95824.47
2022-12-29T17:31:06.977Z,95826.75
2022-12-29T17:33:39.013Z,95823.44
2022-12-29T17:36:05.885Z,95832.03
2022-12-29T17:38:36.065Z,95820.97
2022-12-29T17:41:02.707Z,95828.31
2022-12-29T17:43:36.449Z,95819.78
2022-12-29T17:46:06.545Z,95822.66
2022-12-29T17:48:33.194Z,95815.63
2022-12-29T17:50:59.941Z,95819.72
2022-12-29T17:53:29.589Z,95815.34
2022-12-29T17:55:56.799Z,95825.28
2022-12-29T17:58:26.792Z,95830.69
2022-12-29T18:00:56.424Z,95818.16
2022-12-29T18:03:27.940Z,95818.66
2022-12-29T18:05:55.322Z,95818.66
2022-12-29T18:08:22.292Z,95822.47
2022-12-29T18:10:51.001Z,95815.28
2022-12-29T18:13:27.160Z,95818.72
2022-12-29T18:15:57.267Z,95811.75
2022-12-29T18:18:26.465Z,95808.28
2022-12-29T18:20:59.686Z,95779.66
2022-12-29T18:23:28.861Z,95725.47
2022-12-29T18:25:57.101Z,95819.34
2022-12-29T18:28:25.072Z,95793.88
2022-12-29T18:30:52.166Z,95793.09
2022-12-29T18:33:23.330Z,95803.53
2022-12-29T18:35:59.403Z,95812.03
2022-12-29T18:38:26.595Z,95810.09
2022-12-29T18:40:54.054Z,95823.22
2022-12-29T18:43:21.130Z,95808.09
2022-12-29T18:45:48.085Z,95813.84
2022-12-29T18:48:16.222Z,95814.59
2022-12-29T18:50:43.340Z,95805.34
2022-12-29T18:53:16.747Z,95813.31
2022-12-29T18:55:43.565Z,95814.47
2022-12-29T18:58:10.202Z,95802.16
2022-12-29T19:00:36.907Z,95821.06
2022-12-29T19:03:04.278Z,95813.44
2022-12-29T19:05:37.124Z,95806.31
2022-12-29T19:08:04.553Z,95813.41
2022-12-29T19:10:31.295Z,95800.56
2022-12-29T19:12:58.111Z,95794.41
2022-12-29T19:15:35.378Z,95815.41
2022-12-29T19:20:53.087Z,95811.78
2022-12-29T19:23:22.673Z,95808.16
2022-12-29T19:25:50.313Z,95809.69
2022-12-29T19:28:25.227Z,95779.84
2022-12-29T19:30:54.031Z,95821.19
2022-12-29T19:33:22.232Z,95811.63
2022-12-29T19:35:50.175Z,95811.78
2022-12-29T19:38:17.572Z,95802.59
2022-12-29T19:40:46.897Z,95812.13
2022-12-29T19:43:14.428Z,95801.41
2022-12-29T19:45:43.017Z,95803.25
2022-12-29T19:48:17.645Z,95809.09
2022-12-29T19:50:45.313Z,95814.84
2022-12-29T19:53:13.351Z,95819.47
2022-12-29T19:55:44.832Z,95818.72
2022-12-29T19:58:11.966Z,95820.34
2022-12-29T20:00:49.311Z,95821.88
2022-12-29T20:03:16.083Z,95823.41
2022-12-29T20:05:48.424Z,95826.44
2022-12-29T20:08:15.045Z,95839.88
2022-12-29T20:10:41.685Z,95837.31
2022-12-29T20:13:08.536Z,95829.53
2022-12-29T20:15:35.302Z,95831.50
2022-12-29T20:18:17.282Z,95837.59
2022-12-29T20:20:44.160Z,95823.66
2022-12-29T20:23:11.057Z,95828.66
2022-12-29T20:25:46.410Z,95828.78
2022-12-29T20:28:15.668Z,95832.16
2022-12-29T20:30:42.680Z,95820.69
2022-12-29T20:33:09.363Z,95829.41
2022-12-29T20:35:36.945Z,95836.50
2022-12-29T20:38:04.222Z,95830.69
2022-12-29T20:40:31.692Z,95826.38
2022-12-29T20:42:58.290Z,95834.00
2022-12-29T20:45:25.247Z,95827.47
2022-12-29T20:47:52.392Z,95831.00
2022-12-29T20:50:19.056Z,95839.28
2022-12-29T20:52:46.861Z,95841.75
2022-12-29T20:55:13.963Z,95836.56
2022-12-29T20:58:14.252Z,95836.41
2022-12-29T21:00:30.443Z,95849.94
2022-12-29T21:03:01.108Z,95840.59
2022-12-29T21:05:28.889Z,95840.94
2022-12-29T21:07:56.529Z,95843.84
2022-12-29T21:10:23.236Z,95837.34
2022-12-29T21:12:50.316Z,95837.97
2022-12-29T21:15:17.024Z,95842.63
2022-12-29T21:17:44.784Z,95830.41
2022-12-29T21:20:20.173Z,95819.53
2022-12-29T21:22:48.168Z,95827.34
2022-12-29T21:25:15.117Z,95833.38
2022-12-29T21:27:44.915Z,95826.38
2022-12-29T21:30:12.259Z,95826.63
2022-12-29T21:32:39.789Z,95828.00
2022-12-29T21:35:07.076Z,95820.84
2022-12-29T21:37:34.344Z,95822.25
2022-12-29T21:40:01.055Z,95826.91
2022-12-29T21:42:27.783Z,95823.09
2022-12-29T21:45:19.870Z,95823.50
2022-12-29T21:48:05.842Z,95816.06
2022-12-29T21:50:32.715Z,95806.63
2022-12-29T21:52:59.296Z,95820.03
2022-12-29T21:55:26.029Z,95828.28
2022-12-29T21:58:11.309Z,95821.94
2022-12-29T22:00:56.563Z,95820.03
2022-12-29T22:03:41.960Z,95807.06
2022-12-29T22:06:30.098Z,95807.44
2022-12-29T22:09:15.291Z,95806.41
2022-12-29T22:12:00.527Z,95800.34
2022-12-29T22:14:27.366Z,95808.41
2022-12-29T22:16:54.024Z,95806.03
2022-12-29T22:19:20.655Z,95795.72
2022-12-29T22:21:47.386Z,95810.00
2022-12-29T22:24:14.107Z,95804.53
2022-12-29T22:26:40.789Z,95806.97
2022-12-29T22:29:07.398Z,95806.75
2022-12-29T22:31:34.218Z,95799.91
2022-12-29T22:34:03.185Z,95803.44
2022-12-29T22:36:30.899Z,95793.94
2022-12-29T22:38:57.849Z,95802.13
2022-12-29T22:41:24.670Z,95791.94
2022-12-29T22:43:51.385Z,95800.16
2022-12-29T22:46:18.017Z,95805.63
2022-12-29T22:48:44.796Z,95791.72
2022-12-29T22:51:11.560Z,95788.34
2022-12-29T22:53:38.179Z,95792.94
2022-12-29T22:56:07.720Z,95793.19
2022-12-29T22:58:34.927Z,95812.38
2022-12-29T23:01:01.898Z,95811.97
2022-12-29T23:03:28.764Z,95805.72
2022-12-29T23:06:04.945Z,95803.50
2022-12-29T23:08:34.510Z,95802.72
2022-12-29T23:11:01.550Z,95795.81
2022-12-29T23:13:28.532Z,95804.56
2022-12-29T23:15:55.989Z,95801.84
2022-12-29T23:18:22.750Z,95801.72
2022-12-29T23:20:50.174Z,95789.38
2022-12-29T23:23:46.504Z,95802.06
2022-12-29T23:26:15.954Z,95800.03
2022-12-29T23:28:42.726Z,95788.13
2022-12-29T23:31:09.969Z,95803.44
2022-12-29T23:33:36.994Z,95792.63
2022-12-29T23:36:04.647Z,95793.69
2022-12-29T23:38:31.375Z,95790.25
2022-12-29T23:40:58.076Z,95792.22
2022-12-29T23:43:24.895Z,95784.81
2022-12-29T23:45:51.843Z,95784.72
2022-12-29T23:48:19.429Z,95791.66
2022-12-29T23:50:46.614Z,95794.94
2022-12-29T23:53:13.361Z,95773.75
2022-12-29T23:55:43.599Z,95786.25
2022-12-29T23:58:10.935Z,95794.53
